Arletta, WA

5:06 AM PST on January 17, 2017 (GMT -0800)
Horsehead Bay | | Change Station
Active Advisory: Small Craft Advisory

Elev 46 ft 47.28 °N, 122.68 °W | Updated 17 seconds ago

Rain
Rain
42.6 °F
Feels Like 43 °F
N
2.0
Wind Variable Wind from ESE
Gusts 2.5 mph

Today
High -- | Low -- °F
--% Chance of Precip.
Yesterday
High -- | Low -- °F
Precip. -- in
Pressure 29.85 in
Visibility 10.0 miles
Clouds Few 5500 ft
Overcast 7500 ft
Windchill 43 °F
Dew Point 31 °F
Humidity 64%
Rainfall 0.00 in
Snow Depth Not available.
7:51 AM 4:50 PM
Waning Gibbous, 72% visible
METAR KTIW 171253Z AUTO 00000KT 10SM -RA FEW055 OVC075 04/01 A2984 RMK AO2 RAE22B39 SLP107 P0000 T00440011
Pressure 29.85 in
Visibility 10.0 miles
Clouds Few 5500 ft
Overcast 7500 ft
Windchill 43 °F
Dew Point 31 °F
Humidity 64%
Rainfall 0.00 in
Snow Depth Not available.
7:51 AM 4:50 PM
Waning Gibbous, 72% visible
METAR KTIW 171253Z AUTO 00000KT 10SM -RA FEW055 OVC075 04/01 A2984 RMK AO2 RAE22B39 SLP107 P0000 T00440011

Get Your Daily Forecast Email!

Thanks for signing up!

Be on the lookout for a verification email in your inbox.

You'll start receiving the daily forecast at 8 AM.

×

10-Day Weather Forecast

Almanac

Astronomy

Jan. 17, 2017 Rise Set
Actual Time
Civil Twilight
Nautical Twilight
Astronomical Twilight
Moon
Length of Visible Light
Length of Day
Tomorrow will be .
, % of the Moon is Illuminated

Today's Extremes

State Highs State Lows

Community

WunderPhotos

Upload Photos

1,962,540 photos uploaded!

WunderBlog® & News

Nearby

Air Quality

  Air Quality AQ Index Pollutant
Not available.

Snow Depth

Station Depth Elevation

Earthquake Activity

City Distance Mag. Time & Date
Minimum magnitude displayed is 2.5.

Coastal Water Temperatures

Place Temperature

Stations

Nearby Weather Stations

Station Location Temp. Windchill Dew Point Humidity Wind Precip. Elev Updated Type
                   

Watches & Warnings

Small Craft Advisory
Issued: 2:52 AM PST Jan. 17, 2017 – National Weather Service

... Small Craft Advisory now in effect from 6 am this morning to
4 PM PST Wednesday...

* winds... south 15 to 25 knots.

* Waves... wind waves 2 to 4 feet.

Precautionary/preparedness actions...

A Small Craft Advisory means that wind speeds of 21 to 33 knots are
expected to produce hazardous wave conditions to small craft.
Inexperienced mariners... especially those operating smaller vessels
should avoid navigating in these conditions.